createdAt,value
2017-04-28T00:00:34.218Z,0
2017-04-28T00:01:34.983Z,0
2017-04-28T00:02:35.746Z,0
2017-04-28T00:03:36.510Z,0
2017-04-28T00:04:37.525Z,0
2017-04-28T00:05:38.288Z,0
2017-04-28T00:06:39.055Z,0
2017-04-28T00:07:39.818Z,0
2017-04-28T00:08:40.581Z,0
2017-04-28T00:09:41.595Z,0
2017-04-28T00:10:42.361Z,0
2017-04-28T00:11:43.123Z,0
2017-04-28T00:12:43.886Z,0
2017-04-28T00:13:44.651Z,0
2017-04-28T00:14:45.666Z,0
2017-04-28T00:15:46.435Z,0
2017-04-28T00:16:47.202Z,0
2017-04-28T00:17:47.961Z,0
2017-04-28T00:18:48.725Z,0
2017-04-28T00:19:49.740Z,0
2017-04-28T00:20:50.504Z,0
2017-04-28T00:21:51.268Z,0
2017-04-28T00:22:52.030Z,0
2017-04-28T00:23:52.794Z,0
2017-04-28T00:24:53.810Z,0
2017-04-28T00:25:54.574Z,0
2017-04-28T00:26:55.334Z,0
2017-04-28T00:27:56.101Z,0
2017-04-28T00:28:56.865Z,0
2017-04-28T00:29:57.880Z,0
2017-04-28T00:30:58.643Z,0
2017-04-28T00:31:59.414Z,0
2017-04-28T00:33:00.364Z,0
2017-04-28T00:34:01.128Z,0
2017-04-28T00:35:02.147Z,0
2017-04-28T00:36:02.911Z,0
2017-04-28T00:37:03.676Z,0
2017-04-28T00:38:04.440Z,0
2017-04-28T00:39:05.206Z,0
2017-04-28T00:40:06.220Z,0
2017-04-28T00:41:06.983Z,0
2017-04-28T00:42:07.747Z,0
2017-04-28T00:43:08.511Z,0
2017-04-28T00:44:09.273Z,0
2017-04-28T00:45:10.287Z,0
2017-04-28T00:46:11.052Z,0
2017-04-28T00:47:11.817Z,0
2017-04-28T00:48:16.696Z,0
2017-04-28T00:49:17.711Z,0
2017-04-28T00:50:18.476Z,0
2017-04-28T00:51:19.236Z,0
2017-04-28T00:52:19.998Z,0
2017-04-28T00:53:20.764Z,0
2017-04-28T00:54:21.780Z,0
2017-04-28T00:55:22.542Z,0
2017-04-28T00:56:23.492Z,0
2017-04-28T00:57:24.257Z,0
2017-04-28T00:58:25.022Z,0
2017-04-28T00:59:26.037Z,0
2017-04-28T01:00:26.798Z,0
2017-04-28T01:01:27.564Z,0
2017-04-28T01:02:28.329Z,0
2017-04-28T01:03:29.096Z,0
2017-04-28T01:04:30.110Z,0
2017-04-28T01:05:30.876Z,0
2017-04-28T01:06:31.644Z,0
2017-04-28T01:07:32.407Z,0
2017-04-28T01:08:33.170Z,0
2017-04-28T01:09:34.183Z,0
2017-04-28T01:10:34.942Z,0
2017-04-28T01:11:35.711Z,0
2017-04-28T01:12:36.478Z,0
2017-04-28T01:13:37.242Z,0
2017-04-28T01:14:38.258Z,0
2017-04-28T01:15:39.022Z,0
2017-04-28T01:16:39.787Z,0
2017-04-28T01:17:40.554Z,0
2017-04-28T01:18:41.316Z,0
2017-04-28T01:19:42.332Z,0
2017-04-28T01:20:43.096Z,0
2017-04-28T01:21:43.861Z,0
2017-04-28T01:22:44.624Z,0
2017-04-28T01:23:45.388Z,0
2017-04-28T01:24:46.404Z,0
2017-04-28T01:25:47.168Z,0
2017-04-28T01:26:47.932Z,0
2017-04-28T01:27:48.699Z,0
2017-04-28T01:28:49.462Z,0
2017-04-28T01:29:50.475Z,0
2017-04-28T01:30:51.240Z,0
2017-04-28T01:31:52.004Z,0
2017-04-28T01:32:52.768Z,0
2017-04-28T01:33:53.535Z,0
2017-04-28T01:34:54.550Z,0
2017-04-28T01:35:55.315Z,0
2017-04-28T01:36:56.082Z,0
2017-04-28T01:37:56.850Z,0
2017-04-28T01:38:57.615Z,0
2017-04-28T01:39:58.631Z,0
2017-04-28T01:40:59.399Z,0
2017-04-28T01:42:00.163Z,0
2017-04-28T01:43:00.926Z,0
2017-04-28T01:44:01.691Z,0
2017-04-28T01:45:02.706Z,0
2017-04-28T01:46:03.472Z,0
2017-04-28T01:47:04.234Z,0
2017-04-28T01:48:05.003Z,0
2017-04-28T01:49:05.771Z,0
2017-04-28T01:50:06.783Z,0
2017-04-28T01:51:07.550Z,0
2017-04-28T01:52:08.505Z,0
2017-04-28T01:53:09.271Z,0
2017-04-28T01:54:10.032Z,0
2017-04-28T01:55:11.047Z,0
2017-04-28T01:56:11.815Z,0
2017-04-28T01:57:12.578Z,0
2017-04-28T01:58:13.346Z,0
2017-04-28T01:59:14.298Z,0
2017-04-28T02:00:15.314Z,0
2017-04-28T02:01:16.076Z,0
2017-04-28T02:02:16.843Z,0
2017-04-28T02:03:17.606Z,0
2017-04-28T02:04:18.370Z,0
2017-04-28T02:05:19.387Z,0
2017-04-28T02:06:20.152Z,0
2017-04-28T02:07:20.917Z,0
2017-04-28T02:08:21.683Z,0
2017-04-28T02:09:22.444Z,0
2017-04-28T02:10:23.461Z,0
2017-04-28T02:11:24.235Z,0
2017-04-28T02:12:24.998Z,0
2017-04-28T02:13:25.763Z,0
2017-04-28T02:14:26.529Z,0
2017-04-28T02:15:27.543Z,0
2017-04-28T02:16:28.304Z,0
2017-04-28T02:17:29.072Z,0
2017-04-28T02:18:29.838Z,0
2017-04-28T02:19:30.605Z,0
2017-04-28T02:20:31.622Z,0
2017-04-28T02:21:32.389Z,0
2017-04-28T02:22:33.155Z,0
2017-04-28T02:23:33.922Z,0
2017-04-28T02:24:34.686Z,0
2017-04-28T02:25:35.704Z,0
2017-04-28T02:26:36.470Z,0
2017-04-28T02:27:37.232Z,0
2017-04-28T02:28:38.186Z,0
2017-04-28T02:29:38.950Z,0
2017-04-28T02:30:39.964Z,0
2017-04-28T02:31:40.728Z,0
2017-04-28T02:32:41.495Z,0
2017-04-28T02:33:42.261Z,0
2017-04-28T02:34:43.029Z,0
2017-04-28T02:35:44.042Z,0
2017-04-28T02:36:44.805Z,0
2017-04-28T02:37:45.571Z,0
2017-04-28T02:38:46.338Z,0
2017-04-28T02:39:47.103Z,0
2017-04-28T02:40:48.122Z,0
2017-04-28T02:41:48.888Z,0
2017-04-28T02:42:49.656Z,0
2017-04-28T02:43:50.419Z,0
2017-04-28T02:44:51.187Z,0
2017-04-28T02:45:52.205Z,0
2017-04-28T02:46:52.972Z,0
2017-04-28T02:47:53.738Z,0
2017-04-28T02:48:54.501Z,0
2017-04-28T02:49:55.271Z,0
2017-04-28T02:50:56.288Z,0
2017-04-28T02:51:57.053Z,0
2017-04-28T02:52:57.823Z,0
2017-04-28T02:53:58.584Z,0
2017-04-28T02:54:59.355Z,0
2017-04-28T02:56:00.364Z,0
2017-04-28T02:57:01.130Z,0
2017-04-28T02:58:01.898Z,0
2017-04-28T02:59:02.660Z,0
2017-04-28T03:00:03.426Z,0
2017-04-28T03:01:04.442Z,0
2017-04-28T03:02:05.206Z,0
2017-04-28T03:03:05.971Z,0
2017-04-28T03:04:06.739Z,0
2017-04-28T03:05:07.500Z,0
2017-04-28T03:06:08.568Z,0
2017-04-28T03:07:09.337Z,0
2017-04-28T03:08:10.097Z,0
2017-04-28T03:09:10.866Z,0
2017-04-28T03:10:11.631Z,0
2017-04-28T03:11:12.696Z,0
2017-04-28T03:12:13.461Z,0
2017-04-28T03:13:14.228Z,0
2017-04-28T03:14:14.992Z,0
2017-04-28T03:15:15.759Z,0
2017-04-28T03:16:16.774Z,0
2017-04-28T03:17:17.542Z,0
2017-04-28T03:18:18.306Z,0
2017-04-28T03:19:19.069Z,0
2017-04-28T03:20:19.837Z,0
2017-04-28T03:21:20.853Z,0
2017-04-28T03:22:21.619Z,0
2017-04-28T03:23:22.383Z,0
2017-04-28T03:24:23.148Z,0
2017-04-28T03:25:23.913Z,0
2017-04-28T03:26:24.982Z,0
2017-04-28T03:27:25.747Z,0
2017-04-28T03:28:26.508Z,0
2017-04-28T03:29:27.460Z,0
2017-04-28T03:30:28.223Z,0
2017-04-28T03:31:29.240Z,0
2017-04-28T03:32:30.006Z,0
2017-04-28T03:33:30.772Z,0
2017-04-28T03:34:31.542Z,4
2017-04-28T03:35:32.301Z,4
2017-04-28T03:36:33.315Z,0
2017-04-28T03:37:34.081Z,4
2017-04-28T03:38:34.845Z,4
2017-04-28T03:39:35.610Z,4
2017-04-28T03:40:36.375Z,8
2017-04-28T03:41:37.444Z,4
2017-04-28T03:42:38.210Z,4
2017-04-28T03:43:38.975Z,8
2017-04-28T03:44:39.740Z,12
2017-04-28T03:45:40.506Z,8
2017-04-28T03:46:41.521Z,12
2017-04-28T03:47:42.289Z,12
2017-04-28T03:48:43.058Z,20
2017-04-28T03:49:43.824Z,20
2017-04-28T03:50:44.590Z,24
2017-04-28T03:51:45.607Z,28
2017-04-28T03:52:46.375Z,32
2017-04-28T03:53:47.159Z,36
2017-04-28T03:54:47.914Z,44
2017-04-28T03:55:48.867Z,48
2017-04-28T03:56:49.886Z,56
2017-04-28T03:57:50.653Z,64
2017-04-28T03:58:51.421Z,68
2017-04-28T03:59:52.187Z,76
2017-04-28T04:00:52.955Z,88
2017-04-28T04:01:53.968Z,96
2017-04-28T04:02:54.734Z,108
2017-04-28T04:03:55.505Z,120
2017-04-28T04:04:56.269Z,132
2017-04-28T04:05:57.040Z,144
2017-04-28T04:06:58.058Z,160
2017-04-28T04:07:58.826Z,172
2017-04-28T04:08:59.781Z,188
2017-04-28T04:10:00.547Z,204
2017-04-28T04:11:01.317Z,220
2017-04-28T04:12:02.332Z,240
2017-04-28T04:13:03.102Z,256
2017-04-28T04:14:03.870Z,276
2017-04-28T04:15:04.636Z,296
2017-04-28T04:16:05.405Z,316
2017-04-28T04:17:06.423Z,336
2017-04-28T04:18:07.190Z,360
2017-04-28T04:19:07.960Z,380
2017-04-28T04:20:08.727Z,408
2017-04-28T04:21:09.494Z,436
2017-04-28T04:22:10.516Z,460
2017-04-28T04:23:11.286Z,484
2017-04-28T04:24:12.053Z,516
2017-04-28T04:25:12.827Z,544
2017-04-28T04:26:13.591Z,568
2017-04-28T04:27:14.609Z,596
2017-04-28T04:28:15.379Z,628
2017-04-28T04:29:16.146Z,668
2017-04-28T04:30:16.915Z,700
2017-04-28T04:31:17.685Z,732
2017-04-28T04:32:18.704Z,764
2017-04-28T04:33:19.474Z,780
2017-04-28T04:34:20.244Z,784
2017-04-28T04:35:21.014Z,804
2017-04-28T04:36:21.783Z,828
2017-04-28T04:37:22.801Z,848
2017-04-28T04:38:23.569Z,856
2017-04-28T04:39:24.341Z,872
2017-04-28T04:40:25.111Z,896
2017-04-28T04:41:25.879Z,924
2017-04-28T04:42:26.897Z,948
2017-04-28T04:43:27.663Z,960
2017-04-28T04:44:28.435Z,964
2017-04-28T04:45:29.202Z,976
2017-04-28T04:46:29.972Z,1008
2017-04-28T04:47:30.992Z,1052
2017-04-28T04:48:31.763Z,1104
2017-04-28T04:49:32.530Z,1128
2017-04-28T04:50:33.300Z,1148
2017-04-28T04:51:34.070Z,1160
2017-04-28T04:52:35.092Z,1180
2017-04-28T04:53:35.858Z,1176
2017-04-28T04:54:36.629Z,1176
2017-04-28T04:55:37.397Z,1184
2017-04-28T04:56:38.167Z,1208
2017-04-28T04:57:39.190Z,1228
2017-04-28T04:58:39.957Z,1280
2017-04-28T04:59:40.727Z,1320
2017-04-28T05:00:41.497Z,1396
2017-04-28T05:01:42.266Z,1484
2017-04-28T05:02:43.285Z,1588
2017-04-28T05:03:44.056Z,1716
2017-04-28T05:04:44.826Z,1904
2017-04-28T05:05:45.597Z,2096
2017-04-28T05:06:46.366Z,2188
2017-04-28T05:07:47.386Z,2200
2017-04-28T05:08:48.157Z,2208
2017-04-28T05:09:48.929Z,2224
2017-04-28T05:10:49.703Z,2264
2017-04-28T05:11:50.468Z,2288
2017-04-28T05:12:51.489Z,2320
2017-04-28T05:13:52.266Z,2336
2017-04-28T05:14:53.030Z,2328
2017-04-28T05:15:53.800Z,2348
2017-04-28T05:16:54.573Z,2404
2017-04-28T05:17:55.596Z,2508
2017-04-28T05:18:56.367Z,2640
2017-04-28T05:19:57.139Z,2708
2017-04-28T05:20:57.909Z,2684
2017-04-28T05:21:58.683Z,2660
2017-04-28T05:22:59.759Z,2688
2017-04-28T05:24:00.524Z,2716
2017-04-28T05:25:01.295Z,2768
2017-04-28T05:26:02.070Z,2892
2017-04-28T05:27:02.843Z,3024
2017-04-28T05:28:03.868Z,3064
2017-04-28T05:29:04.833Z,3032
2017-04-28T05:30:05.606Z,3036
2017-04-28T05:31:06.383Z,3112
2017-04-28T05:32:07.156Z,3164
2017-04-28T05:33:08.181Z,3156
2017-04-28T05:34:08.957Z,3156
2017-04-28T05:35:09.726Z,3240
2017-04-28T05:36:10.499Z,3316
2017-04-28T05:37:11.275Z,3260
2017-04-28T05:38:12.298Z,3084
2017-04-28T05:39:13.074Z,2980
2017-04-28T05:40:13.846Z,3040
2017-04-28T05:41:14.621Z,3144
2017-04-28T05:42:15.391Z,3140
2017-04-28T05:43:16.413Z,3024
2017-04-28T05:44:17.185Z,2924
2017-04-28T05:45:17.957Z,2868
2017-04-28T05:46:18.729Z,2872
2017-04-28T05:47:19.502Z,2848
2017-04-28T05:48:20.522Z,2824
2017-04-28T05:49:21.294Z,2792
2017-04-28T05:50:22.070Z,2764
2017-04-28T05:51:22.835Z,2744
2017-04-28T05:52:23.608Z,2724
2017-04-28T05:53:24.632Z,2676
2017-04-28T05:54:25.406Z,2616
2017-04-28T05:55:26.181Z,2540
2017-04-28T05:56:26.951Z,2480
2017-04-28T05:57:27.907Z,2464
2017-04-28T05:58:28.928Z,2508
2017-04-28T05:59:29.701Z,2536
2017-04-28T06:00:30.470Z,2516
2017-04-28T06:01:31.243Z,2468
2017-04-28T06:02:32.013Z,2420
2017-04-28T06:03:33.036Z,2404
2017-04-28T06:04:34.009Z,2376
2017-04-28T06:05:34.782Z,2328
2017-04-28T06:06:35.553Z,2308
2017-04-28T06:07:36.322Z,2336
2017-04-28T06:08:37.341Z,2384
2017-04-28T06:09:38.111Z,2384
2017-04-28T06:10:38.885Z,2396
2017-04-28T06:11:39.654Z,2428
2017-04-28T06:12:40.429Z,2480
2017-04-28T06:13:41.502Z,2544
2017-04-28T06:14:42.275Z,2616
2017-04-28T06:15:43.046Z,2672
2017-04-28T06:16:43.820Z,2676
2017-04-28T06:17:44.591Z,2632
2017-04-28T06:18:45.611Z,2536
2017-04-28T06:19:46.531Z,2412
2017-04-28T06:20:47.309Z,2316
2017-04-28T06:21:48.084Z,2284
2017-04-28T06:22:49.072Z,2312
2017-04-28T06:23:50.069Z,2408
2017-04-28T06:24:50.843Z,2460
2017-04-28T06:25:51.616Z,2488
2017-04-28T06:26:52.389Z,2556
2017-04-28T06:27:53.162Z,2664
2017-04-28T06:28:54.182Z,2764
2017-04-28T06:29:54.956Z,2852
2017-04-28T06:30:55.727Z,2940
2017-04-28T06:31:56.501Z,3008
2017-04-28T06:32:57.276Z,3100
2017-04-28T06:33:58.301Z,3168
2017-04-28T06:34:59.076Z,3240
2017-04-28T06:35:59.846Z,3272
2017-04-28T06:37:00.619Z,3260
2017-04-28T06:38:01.396Z,3212
2017-04-28T06:39:02.418Z,3144
2017-04-28T06:40:03.192Z,3064
2017-04-28T06:41:03.968Z,2984
2017-04-28T06:42:04.736Z,2916
2017-04-28T06:43:05.508Z,2832
2017-04-28T06:44:06.530Z,2764
2017-04-28T06:45:07.300Z,2708
2017-04-28T06:46:08.074Z,2696
2017-04-28T06:47:08.848Z,2712
2017-04-28T06:48:09.624Z,2740
2017-04-28T06:49:10.647Z,2792
2017-04-28T06:50:11.421Z,2836
2017-04-28T06:51:12.195Z,2868
2017-04-28T06:52:12.969Z,2892
2017-04-28T06:53:13.739Z,2888
2017-04-28T06:54:14.762Z,2864
2017-04-28T06:55:15.536Z,2860
2017-04-28T06:56:16.308Z,2888
2017-04-28T06:57:17.083Z,2936
2017-04-28T06:58:17.857Z,3008
2017-04-28T06:59:18.880Z,3080
2017-04-28T07:00:19.654Z,3144
2017-04-28T07:01:20.426Z,3204
2017-04-28T07:02:21.202Z,3276
2017-04-28T07:03:21.974Z,3372
2017-04-28T07:04:22.998Z,3452
2017-04-28T07:05:23.771Z,3508
2017-04-28T07:06:24.543Z,3540
2017-04-28T07:07:25.318Z,3564
2017-04-28T07:08:26.091Z,3584
2017-04-28T07:09:27.122Z,3616
2017-04-28T07:10:27.894Z,3652
2017-04-28T07:11:28.668Z,3692
2017-04-28T07:12:29.440Z,3708
2017-04-28T07:13:30.215Z,3740
2017-04-28T07:14:31.238Z,3848
2017-04-28T07:15:32.012Z,3992
2017-04-28T07:16:32.785Z,4156
2017-04-28T07:17:33.557Z,4296
2017-04-28T07:18:34.327Z,4456
2017-04-28T07:19:35.351Z,4512
2017-04-28T07:20:36.126Z,4540
2017-04-28T07:21:36.898Z,4564
2017-04-28T07:22:37.674Z,4552
2017-04-28T07:23:38.447Z,4476
2017-04-28T07:24:39.472Z,4364
2017-04-28T07:25:40.247Z,4240
2017-04-28T07:26:41.022Z,4084
2017-04-28T07:27:41.799Z,3952
2017-04-28T07:28:42.568Z,3860
2017-04-28T07:29:43.593Z,3812
2017-04-28T07:30:44.371Z,3824
2017-04-28T07:31:45.144Z,3900
2017-04-28T07:32:45.918Z,4004
2017-04-28T07:33:46.693Z,4136
2017-04-28T07:34:47.718Z,4296
2017-04-28T07:35:48.495Z,4496
2017-04-28T07:36:49.268Z,4692
2017-04-28T07:37:50.042Z,4916
2017-04-28T07:38:50.818Z,5164
2017-04-28T07:39:51.843Z,5436
2017-04-28T07:40:52.617Z,5724
2017-04-28T07:41:53.393Z,6056
2017-04-28T07:42:54.169Z,6444
2017-04-28T07:43:54.943Z,6732
2017-04-28T07:44:55.968Z,6932
2017-04-28T07:45:56.743Z,6876
2017-04-28T07:46:57.518Z,6620
2017-04-28T07:47:58.294Z,6300
2017-04-28T07:48:59.066Z,6120
2017-04-28T07:50:00.091Z,6080
2017-04-28T07:51:00.866Z,6060
2017-04-28T07:52:01.642Z,6048
2017-04-28T07:53:02.417Z,5964
2017-04-28T07:54:03.194Z,5808
2017-04-28T07:55:04.245Z,5548
2017-04-28T07:56:04.996Z,5372
2017-04-28T07:57:05.770Z,5368
2017-04-28T07:58:06.546Z,5528
2017-04-28T07:59:07.320Z,5664
2017-04-28T08:00:08.343Z,5840
2017-04-28T08:01:09.120Z,6228
2017-04-28T08:02:09.892Z,6704
2017-04-28T08:03:10.667Z,7204
2017-04-28T08:04:11.440Z,7784
2017-04-28T08:05:12.467Z,8448
2017-04-28T08:06:13.242Z,9008
2017-04-28T08:07:14.019Z,9380
2017-04-28T08:08:14.792Z,9356
2017-04-28T08:09:15.567Z,8736
2017-04-28T08:10:16.644Z,7816
2017-04-28T08:11:17.418Z,6900
2017-04-28T08:12:18.196Z,6180
2017-04-28T08:13:18.973Z,5732
2017-04-28T08:14:19.749Z,5544
2017-04-28T08:15:20.775Z,5548
2017-04-28T08:16:21.550Z,5684
2017-04-28T08:17:22.325Z,6020
2017-04-28T08:18:23.102Z,6672
2017-04-28T08:19:23.874Z,7456
2017-04-28T08:20:24.949Z,8192
2017-04-28T08:21:25.724Z,8492
2017-04-28T08:22:26.501Z,8276
2017-04-28T08:23:27.277Z,7640
2017-04-28T08:24:28.243Z,7480
2017-04-28T08:25:29.277Z,6620
2017-04-28T08:26:30.046Z,6488
2017-04-28T08:27:30.821Z,6616
2017-04-28T08:28:31.604Z,6832
2017-04-28T08:29:32.376Z,7100
2017-04-28T08:30:33.396Z,7228
2017-04-28T08:31:34.171Z,7216
2017-04-28T08:32:34.948Z,7216
2017-04-28T08:33:35.723Z,7332
2017-04-28T08:34:36.685Z,7616
2017-04-28T08:35:37.726Z,8008
2017-04-28T08:36:38.502Z,8504
2017-04-28T08:37:39.276Z,8964
2017-04-28T08:38:40.051Z,9328
2017-04-28T08:39:40.829Z,9664
2017-04-28T08:40:41.853Z,10020
2017-04-28T08:41:42.818Z,10308
2017-04-28T08:42:43.601Z,10640
2017-04-28T08:43:44.375Z,11132
2017-04-28T08:44:45.153Z,11008
2017-04-28T08:45:46.182Z,10560
2017-04-28T08:46:46.959Z,9456
2017-04-28T08:47:47.736Z,8240
2017-04-28T08:48:48.514Z,7228
2017-04-28T08:49:49.291Z,6716
2017-04-28T08:50:50.314Z,6456
2017-04-28T08:51:51.091Z,6276
2017-04-28T08:52:51.867Z,6164
2017-04-28T08:53:52.644Z,5832
2017-04-28T08:54:53.423Z,5596
2017-04-28T08:55:54.450Z,5392
2017-04-28T08:56:55.224Z,5448
2017-04-28T08:57:56.000Z,5416
2017-04-28T08:58:56.775Z,4828
2017-04-28T08:59:57.553Z,4360
2017-04-28T09:00:58.582Z,4256
2017-04-28T09:01:59.354Z,4324
2017-04-28T09:03:00.132Z,4380
2017-04-28T09:04:01.099Z,4752
2017-04-28T09:05:01.875Z,5332
2017-04-28T09:06:02.901Z,6024
2017-04-28T09:07:03.677Z,6620
2017-04-28T09:08:04.454Z,6864
2017-04-28T09:09:05.230Z,6912
2017-04-28T09:10:06.003Z,7360
2017-04-28T09:11:07.029Z,7560
2017-04-28T09:12:07.804Z,7568
2017-04-28T09:13:08.581Z,7564
2017-04-28T09:14:09.382Z,7580
2017-04-28T09:15:10.157Z,7664
2017-04-28T09:16:11.185Z,7920
2017-04-28T09:17:11.959Z,8184
2017-04-28T09:18:12.734Z,8572
2017-04-28T09:19:13.509Z,9008
2017-04-28T09:20:14.285Z,9848
2017-04-28T09:21:15.313Z,10520
2017-04-28T09:22:16.096Z,8804
2017-04-28T09:23:16.869Z,7308
2017-04-28T09:24:17.644Z,6592
2017-04-28T09:25:18.420Z,6400
2017-04-28T09:26:19.447Z,6204
2017-04-28T09:27:20.221Z,5780
2017-04-28T09:28:20.994Z,5316
2017-04-28T09:29:21.771Z,4904
2017-04-28T09:30:22.545Z,4628
2017-04-28T09:31:23.572Z,4464
2017-04-28T09:32:24.351Z,4396
2017-04-28T09:33:25.128Z,4404
2017-04-28T09:34:25.904Z,4496
2017-04-28T09:35:26.677Z,4508
2017-04-28T09:36:27.754Z,4552
2017-04-28T09:37:28.528Z,4572
2017-04-28T09:38:29.300Z,4520
2017-04-28T09:39:30.077Z,4432
2017-04-28T09:40:30.854Z,4372
2017-04-28T09:41:31.882Z,4480
2017-04-28T09:42:32.657Z,4620
2017-04-28T09:43:33.433Z,4596
2017-04-28T09:44:34.209Z,4408
2017-04-28T09:45:34.984Z,4236
2017-04-28T09:46:36.009Z,4140
2017-04-28T09:47:36.784Z,4100
2017-04-28T09:48:37.564Z,4012
2017-04-28T09:49:38.336Z,3840
2017-04-28T09:50:39.113Z,3696
2017-04-28T09:51:40.137Z,3584
2017-04-28T09:52:40.909Z,3592
2017-04-28T09:53:41.685Z,3764
2017-04-28T09:54:42.461Z,4100
2017-04-28T09:55:43.235Z,4500
2017-04-28T09:56:44.311Z,4824
2017-04-28T09:57:45.086Z,4792
2017-04-28T09:58:45.858Z,4668
2017-04-28T09:59:46.632Z,4612
2017-04-28T10:00:47.408Z,4544
2017-04-28T10:01:48.434Z,4504
2017-04-28T10:02:49.211Z,4572
2017-04-28T10:03:49.988Z,4716
2017-04-28T10:04:50.765Z,4788
2017-04-28T10:05:51.545Z,4800
2017-04-28T10:06:52.570Z,4724
2017-04-28T10:07:53.346Z,4580
2017-04-28T10:08:54.123Z,4432
2017-04-28T10:09:55.088Z,4284
2017-04-28T10:10:55.863Z,4200
2017-04-28T10:11:56.889Z,4240
2017-04-28T10:12:57.667Z,4304
2017-04-28T10:13:58.443Z,4316
2017-04-28T10:14:59.220Z,4412
2017-04-28T10:15:59.997Z,4484
2017-04-28T10:17:01.022Z,4552
2017-04-28T10:18:01.799Z,4620
2017-04-28T10:19:02.575Z,4644
2017-04-28T10:20:03.355Z,4620
2017-04-28T10:21:04.131Z,4528
2017-04-28T10:22:05.155Z,4420
2017-04-28T10:23:05.928Z,4412
2017-04-28T10:24:06.705Z,4492
2017-04-28T10:25:07.482Z,4724
2017-04-28T10:26:08.260Z,5032
2017-04-28T10:27:09.286Z,5316
2017-04-28T10:28:10.061Z,5544
2017-04-28T10:29:10.834Z,5744
2017-04-28T10:30:11.611Z,5920
2017-04-28T10:31:12.389Z,5908
2017-04-28T10:32:13.413Z,5828
2017-04-28T10:33:14.189Z,5804
2017-04-28T10:34:14.969Z,5824
2017-04-28T10:35:15.742Z,5876
2017-04-28T10:36:16.518Z,5876
2017-04-28T10:37:17.550Z,5840
2017-04-28T10:38:18.323Z,5724
2017-04-28T10:39:19.097Z,5668
2017-04-28T10:40:19.876Z,5668
2017-04-28T10:41:20.654Z,5612
2017-04-28T10:42:21.682Z,5576
2017-04-28T10:43:22.457Z,5544
2017-04-28T10:44:23.237Z,5520
2017-04-28T10:45:24.009Z,5492
2017-04-28T10:46:24.787Z,5424
2017-04-28T10:47:25.811Z,5440
2017-04-28T10:48:26.589Z,5532
2017-04-28T10:49:27.369Z,5644
2017-04-28T10:50:28.148Z,5768
2017-04-28T10:51:28.924Z,6036
2017-04-28T10:52:29.950Z,6404
2017-04-28T10:53:30.723Z,6916
2017-04-28T10:54:31.499Z,7552
2017-04-28T10:55:32.277Z,8240
2017-04-28T10:56:33.052Z,8908
2017-04-28T10:57:34.262Z,9428
2017-04-28T10:58:35.043Z,9656
2017-04-28T10:59:35.813Z,9636
2017-04-28T11:00:36.592Z,9668
2017-04-28T11:01:37.366Z,9772
2017-04-28T11:02:39.595Z,9836
2017-04-28T11:03:40.373Z,9864
2017-04-28T11:04:41.151Z,9692
2017-04-28T11:05:41.933Z,9460
2017-04-28T11:06:42.714Z,9120
2017-04-28T11:07:43.741Z,8816
2017-04-28T11:08:44.520Z,8312
2017-04-28T11:09:45.298Z,8008
2017-04-28T11:10:46.077Z,7884
2017-04-28T11:11:46.853Z,8228
2017-04-28T11:12:47.881Z,8996
2017-04-28T11:13:48.662Z,9932
2017-04-28T11:14:49.446Z,11176
2017-04-28T11:15:50.225Z,12616
2017-04-28T11:16:51.005Z,14300
2017-04-28T11:17:52.038Z,15868
2017-04-28T11:18:52.822Z,17984
2017-04-28T11:19:53.601Z,20576
2017-04-28T11:20:54.384Z,25184
2017-04-28T11:21:55.167Z,27488
2017-04-28T11:22:56.201Z,30528
2017-04-28T11:23:57.171Z,29216
2017-04-28T11:24:57.951Z,28544
2017-04-28T11:25:58.734Z,26432
2017-04-28T11:26:59.518Z,25888
2017-04-28T11:28:00.551Z,28864
2017-04-28T11:29:01.335Z,29024
2017-04-28T11:30:02.119Z,31872
2017-04-28T11:31:02.904Z,33472
2017-04-28T11:32:03.687Z,75392
2017-04-28T11:33:04.725Z,49984
2017-04-28T11:34:05.510Z,49184
2017-04-28T11:35:06.299Z,105792
2017-04-28T11:36:07.087Z,85984
2017-04-28T11:37:07.874Z,96512
2017-04-28T11:38:08.965Z,54400
2017-04-28T11:39:09.756Z,38080
2017-04-28T11:40:10.551Z,50624
2017-04-28T11:41:11.345Z,58272
2017-04-28T11:42:12.135Z,66144
2017-04-28T11:43:13.176Z,93920
2017-04-28T11:44:13.972Z,49280
2017-04-28T11:45:14.764Z,85088
2017-04-28T11:46:15.558Z,74304
2017-04-28T11:47:16.348Z,80480
2017-04-28T11:48:17.390Z,90560
2017-04-28T11:49:18.180Z,83008
2017-04-28T11:50:18.971Z,78688
2017-04-28T11:51:19.765Z,87840
2017-04-28T11:52:20.561Z,62144
2017-04-28T11:53:21.605Z,58688
2017-04-28T11:54:22.403Z,71904
2017-04-28T11:55:23.191Z,50240
2017-04-28T11:56:23.990Z,92608
2017-04-28T11:57:24.784Z,97216
2017-04-28T11:58:25.828Z,47072
2017-04-28T11:59:26.620Z,48448
2017-04-28T12:00:27.412Z,60448
2017-04-28T12:01:28.206Z,48128
2017-04-28T12:02:29.000Z,64448
2017-04-28T12:03:30.041Z,88160
2017-04-28T12:04:30.835Z,90944
2017-04-28T12:05:31.625Z,24768
2017-04-28T12:06:32.420Z,86944
2017-04-28T12:07:33.224Z,75616
2017-04-28T12:08:34.255Z,61952
2017-04-28T12:09:35.047Z,85536
2017-04-28T12:10:36.033Z,81568
2017-04-28T12:11:36.836Z,69152
2017-04-28T12:12:37.623Z,65056
2017-04-28T12:13:38.672Z,55872
2017-04-28T12:14:39.464Z,49984
2017-04-28T12:15:40.258Z,80512
2017-04-28T12:16:41.051Z,84736
2017-04-28T12:17:41.845Z,92000
2017-04-28T12:18:42.891Z,18816
2017-04-28T12:19:43.682Z,17280
2017-04-28T12:20:44.472Z,86944
2017-04-28T12:21:45.264Z,49184
2017-04-28T12:22:46.057Z,27392
2017-04-28T12:23:47.097Z,74656
2017-04-28T12:24:47.891Z,43904
2017-04-28T12:25:48.687Z,78112
2017-04-28T12:26:49.476Z,49024
2017-04-28T12:27:50.271Z,35232
2017-04-28T12:28:51.316Z,24000
2017-04-28T12:29:52.107Z,26912
2017-04-28T12:30:52.898Z,17952
2017-04-28T12:31:53.690Z,16320
2017-04-28T12:32:54.487Z,17280
2017-04-28T12:33:55.523Z,56096
2017-04-28T12:34:56.314Z,24288
2017-04-28T12:35:57.105Z,18912
2017-04-28T12:36:57.890Z,16352
2017-04-28T12:37:58.679Z,14256
2017-04-28T12:38:59.719Z,12600
2017-04-28T12:40:00.502Z,12392
2017-04-28T12:41:01.292Z,12880
2017-04-28T12:42:02.087Z,13992
2017-04-28T12:43:02.877Z,14308
2017-04-28T12:44:03.918Z,13464
2017-04-28T12:45:04.707Z,12764
2017-04-28T12:46:05.498Z,13056
2017-04-28T12:47:06.289Z,14124
2017-04-28T12:48:07.077Z,15676
2017-04-28T12:49:08.121Z,17824
2017-04-28T12:50:08.908Z,20512
2017-04-28T12:51:09.696Z,26496
2017-04-28T12:52:10.486Z,31008
2017-04-28T12:53:11.279Z,47488
2017-04-28T12:54:12.318Z,54144
2017-04-28T12:55:13.114Z,86784
2017-04-28T12:56:13.906Z,85472
2017-04-28T12:57:14.699Z,90368
2017-04-28T12:58:15.489Z,28576
2017-04-28T12:59:16.539Z,80800
2017-04-28T13:00:17.335Z,55584
2017-04-28T13:01:18.129Z,79840
2017-04-28T13:02:18.922Z,77920
2017-04-28T13:03:19.711Z,35584
2017-04-28T13:04:20.750Z,35264
2017-04-28T13:05:21.536Z,23744
2017-04-28T13:06:22.327Z,23872
2017-04-28T13:07:23.113Z,24640
2017-04-28T13:08:23.904Z,31072
2017-04-28T13:09:24.942Z,31904
2017-04-28T13:10:25.735Z,34784
2017-04-28T13:11:26.522Z,25152
2017-04-28T13:12:27.313Z,31136
2017-04-28T13:13:28.107Z,27808
2017-04-28T13:14:29.142Z,25888
2017-04-28T13:15:29.934Z,33792
2017-04-28T13:16:30.728Z,36320
2017-04-28T13:17:31.522Z,21632
2017-04-28T13:18:32.310Z,20992
2017-04-28T13:19:33.352Z,22752
2017-04-28T13:20:34.145Z,51488
2017-04-28T13:21:34.939Z,54688
2017-04-28T13:22:35.729Z,21120
2017-04-28T13:23:36.521Z,16384
2017-04-28T13:24:37.560Z,14960
2017-04-28T13:25:38.352Z,17440
2017-04-28T13:26:39.143Z,34368
2017-04-28T13:27:39.935Z,15292
2017-04-28T13:28:40.726Z,12928
2017-04-28T13:29:41.768Z,11664
2017-04-28T13:30:42.557Z,11596
2017-04-28T13:31:43.347Z,13764
2017-04-28T13:32:44.133Z,17792
2017-04-28T13:33:44.920Z,17984
2017-04-28T13:34:46.008Z,17408
2017-04-28T13:35:46.798Z,17184
2017-04-28T13:36:47.589Z,16312
2017-04-28T13:37:48.379Z,14756
2017-04-28T13:38:49.166Z,12752
2017-04-28T13:39:50.254Z,10952
2017-04-28T13:40:51.038Z,9508
2017-04-28T13:41:51.821Z,8360
2017-04-28T13:42:52.606Z,7864
2017-04-28T13:43:53.390Z,7460
2017-04-28T13:44:54.423Z,7336
2017-04-28T13:45:55.234Z,6816
2017-04-28T13:46:56.027Z,6240
2017-04-28T13:47:56.812Z,6048
2017-04-28T13:48:57.593Z,6636
2017-04-28T13:49:58.628Z,7480